Flight Track Log - Related Links

Times and Time Zones

All times are in EDT time to prevent confusion due to time zone crossing. See the AWE3794 flight status page for this flight to view local times or setup timezone preferences in your user account.

Time Position Orientation Groundspeed Altitude Reporting Facility
EDT Latitude Longitude Course Direction KTS MPH feet Rate Location/Type
07:36AM 39.8847 -75.2028 North 147 169 700  Level FAA TRACON SMA TRACON (SMA)
07:37AM 39.8914 -75.1847 64° Northeast 171 197 1,400 1,846 Climbing FAA TRACON SMA TRACON (SMA)
07:37AM 39.9000 -75.1653 60° Northeast 224 258 1,900 2,100 Climbing FAA TRACON SMA TRACON (SMA)
07:37AM 39.9117 -75.1372 62° Northeast 255 293 2,800 2,250 Climbing FAA TRACON SMA TRACON (SMA)
07:38AM 39.9306 -75.1217 32° Northeast 290 334 3,400 2,100 Climbing FAA TRACON SMA TRACON (SMA)
07:38AM 39.9586 -75.1244 356° North 274 315 4,200 2,550 Climbing FAA TRACON SMA TRACON (SMA)
07:38AM 39.9742 -75.1403 322° Northwest 257 296 5,100 3,366 Climbing FAA TRACON SMA TRACON (SMA)
07:39AM 40.0723 -75.4223 323° Northwest  Level FlightAware Approximate
07:39AM 40.0003 -75.1725 317° Northwest 277 319 6,500  Level FAA TRACON SMA TRACON (SMA)
07:39AM 40.0156 -75.1914 317° Northwest 283 326 7,400 2,615 Climbing FAA TRACON SMA TRACON (SMA)
07:39AM 40.0347 -75.2172 314° West 290 334 8,200 2,550 Climbing FAA TRACON SMA TRACON (SMA)
07:40AM 40.1423 -75.4923 323° Northwest  Level FlightAware Approximate
07:40AM 40.0586 -75.2469 316° Northwest 308 354 9,100  Level FAA TRACON SMA TRACON (SMA)
07:40AM 40.0756 -75.2697 314° West 308 354 9,900 2,700 Climbing FAA TRACON SMA TRACON (SMA)
07:40AM 40.0903 -75.3000 302° West 286 329 10,900 2,550 Climbing FAA TRACON SMA TRACON (SMA)
07:41AM 40.2156 -75.5500 North  Level FlightAware Approximate
07:41AM 40.1083 -75.3364 303° West 317 365 11,600  Level FAA TRACON SMA TRACON (SMA)
07:41AM 40.1231 -75.3658 303° West 316 364 12,200 1,800 Climbing FAA TRACON SMA TRACON (SMA)
07:41AM 40.1383 -75.3956 304° West 320 368 12,800 1,200 Climbing FAA TRACON SMA TRACON (SMA)
07:42AM 40.1575 -75.4317 305° West 328 377 13,000 154 Climbing FAA TRACON SMA TRACON (SMA)
07:42AM 40.1750 -75.4683 302° West 362 417 12,900  Descending FAA TRACON SMA TRACON (SMA)
07:42AM 40.1928 -75.5028 304° West 373 429 13,000 146 Climbing FAA TRACON SMA TRACON (SMA)
07:43AM 40.2164 -75.5478 305° West 389 448 13,000  Level FAA TRACON SMA TRACON (SMA)
07:43AM 40.2375 -75.5828 308° West 397 457 13,000  Level FAA TRACON SMA TRACON (SMA)
07:43AM 40.2600 -75.6169 311° West 401 461 13,000 450 Level FAA TRACON SMA TRACON (SMA)
07:44AM 40.2875 -75.6592 310° West 402 463 13,300 1,950 Climbing FAA TRACON SMA TRACON (SMA)
07:44AM 40.3106 -75.6931 312° West 399 459 14,300 2,850 Climbing FAA TRACON SMA TRACON (SMA)
07:44AM 40.3317 -75.7250 311° West 379 436 15,200 3,150 Climbing FAA TRACON SMA TRACON (SMA)
07:45AM 40.3567 -75.7636 310° West 364 419 16,400 2,550 Climbing FAA TRACON SMA TRACON (SMA)
07:45AM 40.3717 -75.7864 311° West 360 414 16,900 500 Climbing FAA TRACON SMA TRACON (SMA)
07:46AM 40.3717 -75.7864 166° South 360 414 16,900 85 Level FAA TRACON SMA TRACON (SMA)
07:46AM 40.4469 -75.9256 305° West 376 433 17,000 65 Climbing New York Center
07:47AM 40.4681 -76.0636 281° West 381 438 17,000 645 Level New York Center
07:48AM 40.4908 -76.1989 283° West 389 448 18,300 1,000 Climbing New York Center
07:49AM 40.5117 -76.3372 281° West 389 448 19,000 559 Climbing New York Center
07:50AM 40.5306 -76.4672 281° West 401 461 19,400 1,008 Climbing New York Center
07:51AM 40.5547 -76.6083 283° West 401 461 21,000 1,488 Climbing New York Center
07:52AM 40.5897 -76.7425 289° West 395 455 22,400 1,190 Climbing New York Center
07:53AM 40.6267 -76.8797 290° West 395 455 23,400 992 Climbing New York Center
07:54AM 40.6611 -77.0142 289° West 395 455 24,400 1,017 Climbing New York Center
07:55AM 40.6978 -77.1517 289° West 395 455 25,400 1,017 Climbing New York Center
07:56AM 40.7322 -77.2811 289° West 395 455 26,400 1,050 Climbing New York Center
07:57AM 40.7722 -77.4247 290° West 390 449 27,500 503 Climbing New York Center
07:59AM 40.8419 -77.7122 288° West 375 432 28,000 157 Climbing Cleveland Center
08:00AM 40.8744 -77.8397 289° West 375 432 28,000  Level Cleveland Center
08:01AM 40.9086 -77.9675 290° West 375 432 28,000  Level Cleveland Center
08:02AM 40.9325 -78.1011 283° West 375 432 28,000  Level Cleveland Center
08:03AM 40.9539 -78.2297 282° West 375 432 28,000  Level Cleveland Center
08:04AM 40.9775 -78.3608 283° West 370 426 28,000  Level Cleveland Center
08:05AM 40.9967 -78.4894 281° West 370 426 28,000  Level Cleveland Center
08:06AM 41.0175 -78.6208 282° West 370 426 28,000  Level Cleveland Center
08:07AM 41.0361 -78.7361 282° West 370 426 28,000  Level Cleveland Center
08:08AM 41.0569 -78.8619 282° West 365 420 28,000 -150 Level Cleveland Center
08:09AM 41.0775 -78.9911 282° West 360 414 27,700 -700 Descending Cleveland Center
08:10AM 41.1003 -79.1256 283° West 368 423 26,600 -857 Descending Cleveland Center
08:11AM 41.1228 -79.2767 281° West 393 452 26,000 -300 Descending Cleveland Center
08:12AM 41.1475 -79.4442 281° West 420 483 26,000 -450 Level Cleveland Center
08:13AM 41.1719 -79.5956 282° West 420 483 25,100 -992 Descending Cleveland Center
08:14AM 41.1939 -79.7442 281° West 420 483 24,000 -550 Descending Cleveland Center
08:15AM 41.2158 -79.8847 282° West 413 475 24,000  Level Cleveland Center
08:16AM 41.2375 -80.0281 281° West 402 463 24,000  Level Cleveland Center
08:17AM 41.2589 -80.1717 281° West 397 457 24,000  Level Cleveland Center
08:18AM 41.2758 -80.2958 280° West 391 450 24,000 -1,041 Level Cleveland Center
08:19AM 41.2992 -80.4422 282° West 391 450 21,900 -2,319 Descending Cleveland Center
08:20AM 41.3181 -80.5803 280° West 391 450 19,400 -2,874 Descending Cleveland Center
08:21AM 41.3450 -80.7186 285° West 349 402 16,200 -3,067 Descending Cleveland Center
08:22AM 41.3719 -80.7794 301° West 351 404 14,800 -2,300 Descending Cleveland Center
08:22AM 41.3886 -80.8211 298° West 355 409 13,900 -2,459 Descending Cleveland Center
08:23AM 41.4133 -80.8961 294° West 358 412 12,300 -2,557 Descending Cleveland Center
08:23AM 41.4342 -80.9431 301° West 365 420 11,300 -2,291 Descending Cleveland Center
08:24AM 41.4567 -81.0097 294° West 366 421 10,200 -1,300 Descending Cleveland Center
08:24AM 41.4775 -81.0597 299° West 357 411 10,000 -273 Descending Cleveland Center
08:25AM 41.4958 -81.1236 291° West 278 320 9,900 -814 Descending Cleveland Center
08:25AM 41.4978 -81.1569 274° West 308 354 9,200 -1,475 Descending Cleveland Center
08:26AM 41.5058 -81.2153 280° West 236 272 8,400 -1,574 Descending Cleveland Center
08:26AM 41.5119 -81.2569 281° West 264 304 7,600 -1,522 Descending Cleveland Center
08:27AM 41.5197 -81.3181 280° West 262 302 6,700 -1,525 Descending Cleveland Center
08:27AM 41.5217 -81.3514 274° West 257 296 6,100 -1,500 Descending Cleveland Center
08:28AM 41.5297 -81.4097 280° West 249 287 5,200 -1,500 Descending Cleveland Center
08:28AM 41.5336 -81.4403 280° West 257 296 4,600 -1,200 Descending Cleveland Center
08:29AM 41.5394 -81.4931 278° West 247 284 4,100 -600 Descending Cleveland Center
08:29AM 41.5433 -81.5319 278° West 257 296 4,000  Descending Cleveland Center
08:30AM 41.5492 -81.5819 279° West 255 293 4,100  Climbing Cleveland Center
08:30AM 41.5508 -81.6264 273° West 257 296 4,000 -98 Descending Cleveland Center
08:31AM 41.5339 -81.6650 240° Southwest 199 229 4,000 -524 Level Cleveland Center
08:32AM 41.4978 -81.7197 229° Southwest 162 186 3,100 -806 Descending Cleveland Center

Login

Don't have an account? Register now (free) for customized features, flight alerts, and more!